sensor_id;sensor_type;location;lat;lon;timestamp;P1;durP1;ratioP1;P2;durP2;ratioP2
37891;SDS011;45797;47.466;9.486;2022-10-17T00:01:18;2.58;;;1.40;;
37891;SDS011;45797;47.466;9.486;2022-10-17T00:06:20;4.78;;;1.20;;
37891;SDS011;45797;47.466;9.486;2022-10-17T00:11:21;3.00;;;1.30;;
37891;SDS011;45797;47.466;9.486;2022-10-17T00:16:28;4.22;;;1.50;;
37891;SDS011;45797;47.466;9.486;2022-10-17T00:21:37;2.63;;;1.27;;
37891;SDS011;45797;47.466;9.486;2022-10-17T00:26:37;2.67;;;1.08;;
37891;SDS011;45797;47.466;9.486;2022-10-17T00:31:37;2.58;;;1.10;;
37891;SDS011;45797;47.466;9.486;2022-10-17T00:36:37;4.85;;;1.50;;
37891;SDS011;45797;47.466;9.486;2022-10-17T00:41:41;2.20;;;1.00;;
37891;SDS011;45797;47.466;9.486;2022-10-17T00:46:50;2.50;;;1.13;;
37891;SDS011;45797;47.466;9.486;2022-10-17T00:52:05;5.93;;;1.20;;
37891;SDS011;45797;47.466;9.486;2022-10-17T00:57:18;2.10;;;1.00;;
37891;SDS011;45797;47.466;9.486;2022-10-17T01:02:20;2.45;;;1.10;;
37891;SDS011;45797;47.466;9.486;2022-10-17T01:24:02;4.93;;;1.25;;
37891;SDS011;45797;47.466;9.486;2022-10-17T01:34:49;4.43;;;1.00;;
37891;SDS011;45797;47.466;9.486;2022-10-17T01:40:02;2.05;;;0.95;;
37891;SDS011;45797;47.466;9.486;2022-10-17T01:45:21;3.55;;;1.00;;
37891;SDS011;45797;47.466;9.486;2022-10-17T01:50:36;3.28;;;1.35;;
37891;SDS011;45797;47.466;9.486;2022-10-17T01:55:40;5.35;;;1.40;;
37891;SDS011;45797;47.466;9.486;2022-10-17T02:06:12;3.88;;;1.30;;
37891;SDS011;45797;47.466;9.486;2022-10-17T02:11:23;5.82;;;1.20;;
37891;SDS011;45797;47.466;9.486;2022-10-17T02:32:58;3.60;;;1.10;;
37891;SDS011;45797;47.466;9.486;2022-10-17T02:38:02;3.05;;;1.23;;
37891;SDS011;45797;47.466;9.486;2022-10-17T02:43:05;2.35;;;1.00;;
37891;SDS011;45797;47.466;9.486;2022-10-17T02:48:16;2.35;;;1.20;;
37891;SDS011;45797;47.466;9.486;2022-10-17T02:53:39;2.65;;;1.10;;
37891;SDS011;45797;47.466;9.486;2022-10-17T02:58:53;4.40;;;1.33;;
37891;SDS011;45797;47.466;9.486;2022-10-17T03:04:11;5.68;;;1.30;;
37891;SDS011;45797;47.466;9.486;2022-10-17T03:09:15;4.25;;;1.30;;
37891;SDS011;45797;47.466;9.486;2022-10-17T03:14:15;5.38;;;1.52;;
37891;SDS011;45797;47.466;9.486;2022-10-17T03:19:24;3.40;;;1.60;;
37891;SDS011;45797;47.466;9.486;2022-10-17T03:24:26;4.25;;;1.67;;
37891;SDS011;45797;47.466;9.486;2022-10-17T03:29:26;3.05;;;1.60;;
37891;SDS011;45797;47.466;9.486;2022-10-17T03:34:36;5.93;;;1.45;;
37891;SDS011;45797;47.466;9.486;2022-10-17T03:39:40;2.53;;;1.17;;
37891;SDS011;45797;47.466;9.486;2022-10-17T03:44:42;3.25;;;1.73;;
37891;SDS011;45797;47.466;9.486;2022-10-17T03:49:52;4.32;;;1.40;;
37891;SDS011;45797;47.466;9.486;2022-10-17T03:54:55;3.50;;;1.38;;
37891;SDS011;45797;47.466;9.486;2022-10-17T04:00:03;2.95;;;1.70;;
37891;SDS011;45797;47.466;9.486;2022-10-17T04:05:15;4.32;;;1.40;;
37891;SDS011;45797;47.466;9.486;2022-10-17T04:10:16;3.20;;;1.35;;
37891;SDS011;45797;47.466;9.486;2022-10-17T04:15:17;3.17;;;1.67;;
37891;SDS011;45797;47.466;9.486;2022-10-17T04:25:21;7.00;;;1.77;;
37891;SDS011;45797;47.466;9.486;2022-10-17T04:30:24;10.23;;;2.28;;
37891;SDS011;45797;47.466;9.486;2022-10-17T04:40:35;2.40;;;1.08;;
37891;SDS011;45797;47.466;9.486;2022-10-17T04:45:45;3.38;;;1.70;;
37891;SDS011;45797;47.466;9.486;2022-10-17T04:50:56;2.80;;;1.27;;
37891;SDS011;45797;47.466;9.486;2022-10-17T04:56:10;5.43;;;1.42;;
37891;SDS011;45797;47.466;9.486;2022-10-17T05:01:23;9.48;;;2.05;;
37891;SDS011;45797;47.466;9.486;2022-10-17T05:06:25;3.95;;;1.92;;
37891;SDS011;45797;47.466;9.486;2022-10-17T05:11:49;4.28;;;1.60;;
37891;SDS011;45797;47.466;9.486;2022-10-17T05:16:59;5.40;;;1.55;;
37891;SDS011;45797;47.466;9.486;2022-10-17T05:22:00;3.42;;;1.70;;
37891;SDS011;45797;47.466;9.486;2022-10-17T05:32:27;4.28;;;1.55;;
37891;SDS011;45797;47.466;9.486;2022-10-17T05:37:39;5.85;;;1.42;;
37891;SDS011;45797;47.466;9.486;2022-10-17T05:42:44;5.57;;;1.63;;
37891;SDS011;45797;47.466;9.486;2022-10-17T05:47:56;2.88;;;1.40;;
37891;SDS011;45797;47.466;9.486;2022-10-17T05:53:11;3.22;;;1.42;;
37891;SDS011;45797;47.466;9.486;2022-10-17T05:58:18;6.15;;;1.60;;
37891;SDS011;45797;47.466;9.486;2022-10-17T06:03:21;2.83;;;1.20;;
37891;SDS011;45797;47.466;9.486;2022-10-17T06:13:42;6.50;;;1.55;;
37891;SDS011;45797;47.466;9.486;2022-10-17T06:18:51;3.45;;;1.83;;
37891;SDS011;45797;47.466;9.486;2022-10-17T06:23:59;4.78;;;2.10;;
37891;SDS011;45797;47.466;9.486;2022-10-17T06:29:10;7.95;;;1.50;;
37891;SDS011;45797;47.466;9.486;2022-10-17T06:34:17;4.07;;;1.92;;
37891;SDS011;45797;47.466;9.486;2022-10-17T06:39:17;5.68;;;1.73;;
37891;SDS011;45797;47.466;9.486;2022-10-17T06:50:14;3.45;;;1.83;;
37891;SDS011;45797;47.466;9.486;2022-10-17T07:01:06;4.15;;;1.70;;
37891;SDS011;45797;47.466;9.486;2022-10-17T07:06:20;3.50;;;1.85;;
37891;SDS011;45797;47.466;9.486;2022-10-17T07:11:24;5.93;;;1.80;;
37891;SDS011;45797;47.466;9.486;2022-10-17T07:16:34;5.40;;;2.08;;
37891;SDS011;45797;47.466;9.486;2022-10-17T07:21:40;7.15;;;2.33;;
37891;SDS011;45797;47.466;9.486;2022-10-17T07:26:45;4.55;;;2.38;;
37891;SDS011;45797;47.466;9.486;2022-10-17T07:31:56;10.20;;;2.35;;
37891;SDS011;45797;47.466;9.486;2022-10-17T07:37:06;6.97;;;2.42;;
37891;SDS011;45797;47.466;9.486;2022-10-17T07:42:10;5.82;;;2.85;;
37891;SDS011;45797;47.466;9.486;2022-10-17T07:47:15;6.68;;;2.50;;
37891;SDS011;45797;47.466;9.486;2022-10-17T07:52:16;5.60;;;2.22;;
37891;SDS011;45797;47.466;9.486;2022-10-17T07:57:25;4.38;;;2.30;;
37891;SDS011;45797;47.466;9.486;2022-10-17T08:02:26;5.75;;;2.20;;
37891;SDS011;45797;47.466;9.486;2022-10-17T08:18:20;4.85;;;2.60;;
37891;SDS011;45797;47.466;9.486;2022-10-17T08:23:21;6.10;;;2.70;;
37891;SDS011;45797;47.466;9.486;2022-10-17T08:28:21;4.85;;;2.53;;
37891;SDS011;45797;47.466;9.486;2022-10-17T08:33:22;6.18;;;2.75;;
37891;SDS011;45797;47.466;9.486;2022-10-17T08:38:25;7.20;;;3.33;;
37891;SDS011;45797;47.466;9.486;2022-10-17T08:48:55;7.32;;;3.20;;
37891;SDS011;45797;47.466;9.486;2022-10-17T08:59:39;7.07;;;3.67;;
37891;SDS011;45797;47.466;9.486;2022-10-17T09:10:27;8.60;;;4.20;;
37891;SDS011;45797;47.466;9.486;2022-10-17T09:20:43;8.52;;;3.85;;
37891;SDS011;45797;47.466;9.486;2022-10-17T09:25:54;8.07;;;4.03;;
37891;SDS011;45797;47.466;9.486;2022-10-17T09:36:04;7.07;;;4.10;;
37891;SDS011;45797;47.466;9.486;2022-10-17T09:41:18;7.20;;;4.10;;
37891;SDS011;45797;47.466;9.486;2022-10-17T09:46:24;8.73;;;4.03;;
37891;SDS011;45797;47.466;9.486;2022-10-17T09:51:29;7.50;;;4.13;;
37891;SDS011;45797;47.466;9.486;2022-10-17T09:56:31;11.88;;;4.35;;
37891;SDS011;45797;47.466;9.486;2022-10-17T10:07:12;6.47;;;3.70;;
37891;SDS011;45797;47.466;9.486;2022-10-17T10:34:35;7.32;;;3.25;;
37891;SDS011;45797;47.466;9.486;2022-10-17T10:39:49;5.88;;;3.22;;
37891;SDS011;45797;47.466;9.486;2022-10-17T10:55:50;6.32;;;3.60;;
37891;SDS011;45797;47.466;9.486;2022-10-17T11:00:59;5.30;;;3.20;;
37891;SDS011;45797;47.466;9.486;2022-10-17T11:06:10;6.15;;;3.55;;
37891;SDS011;45797;47.466;9.486;2022-10-17T11:16:48;6.78;;;3.72;;
37891;SDS011;45797;47.466;9.486;2022-10-17T11:22:31;6.55;;;2.80;;
37891;SDS011;45797;47.466;9.486;2022-10-17T11:32:47;7.78;;;3.92;;
37891;SDS011;45797;47.466;9.486;2022-10-17T11:43:37;6.32;;;3.28;;
37891;SDS011;45797;47.466;9.486;2022-10-17T11:48:44;7.10;;;3.38;;
37891;SDS011;45797;47.466;9.486;2022-10-17T12:09:41;4.25;;;2.45;;
37891;SDS011;45797;47.466;9.486;2022-10-17T12:25:29;6.82;;;2.35;;
37891;SDS011;45797;47.466;9.486;2022-10-17T12:30:32;3.83;;;2.20;;
37891;SDS011;45797;47.466;9.486;2022-10-17T12:45:49;5.30;;;2.67;;
37891;SDS011;45797;47.466;9.486;2022-10-17T12:56:44;4.50;;;2.60;;
37891;SDS011;45797;47.466;9.486;2022-10-17T13:02:00;3.75;;;2.28;;
37891;SDS011;45797;47.466;9.486;2022-10-17T13:12:46;5.15;;;2.47;;
37891;SDS011;45797;47.466;9.486;2022-10-17T13:17:58;6.93;;;2.50;;
37891;SDS011;45797;47.466;9.486;2022-10-17T13:22:59;10.00;;;2.58;;
37891;SDS011;45797;47.466;9.486;2022-10-17T13:28:03;3.65;;;2.15;;
37891;SDS011;45797;47.466;9.486;2022-10-17T13:38:37;9.65;;;2.50;;
37891;SDS011;45797;47.466;9.486;2022-10-17T13:43:37;6.68;;;2.65;;
37891;SDS011;45797;47.466;9.486;2022-10-17T13:48:37;4.28;;;2.40;;
37891;SDS011;45797;47.466;9.486;2022-10-17T13:53:37;5.50;;;2.47;;
37891;SDS011;45797;47.466;9.486;2022-10-17T13:58:44;3.65;;;2.08;;
37891;SDS011;45797;47.466;9.486;2022-10-17T14:04:05;4.28;;;2.13;;
37891;SDS011;45797;47.466;9.486;2022-10-17T14:09:16;4.72;;;2.50;;
37891;SDS011;45797;47.466;9.486;2022-10-17T14:14:18;4.68;;;2.20;;
37891;SDS011;45797;47.466;9.486;2022-10-17T14:19:28;3.47;;;1.90;;
37891;SDS011;45797;47.466;9.486;2022-10-17T14:24:30;3.95;;;2.10;;
37891;SDS011;45797;47.466;9.486;2022-10-17T14:39:59;5.63;;;2.72;;
37891;SDS011;45797;47.466;9.486;2022-10-17T14:45:06;3.65;;;2.13;;
37891;SDS011;45797;47.466;9.486;2022-10-17T14:55:23;3.22;;;1.83;;
37891;SDS011;45797;47.466;9.486;2022-10-17T15:00:34;4.25;;;2.17;;
37891;SDS011;45797;47.466;9.486;2022-10-17T15:05:46;5.72;;;2.13;;
37891;SDS011;45797;47.466;9.486;2022-10-17T15:10:57;5.60;;;2.20;;
37891;SDS011;45797;47.466;9.486;2022-10-17T15:15:57;7.05;;;2.25;;
37891;SDS011;45797;47.466;9.486;2022-10-17T15:21:13;2.75;;;1.40;;
37891;SDS011;45797;47.466;9.486;2022-10-17T15:26:19;6.40;;;2.17;;
37891;SDS011;45797;47.466;9.486;2022-10-17T15:31:22;8.95;;;2.10;;
37891;SDS011;45797;47.466;9.486;2022-10-17T15:36:29;3.80;;;1.80;;
37891;SDS011;45797;47.466;9.486;2022-10-17T15:41:41;3.08;;;1.63;;
37891;SDS011;45797;47.466;9.486;2022-10-17T15:46:44;3.08;;;1.55;;
37891;SDS011;45797;47.466;9.486;2022-10-17T15:51:44;4.57;;;1.73;;
37891;SDS011;45797;47.466;9.486;2022-10-17T15:56:45;3.20;;;1.70;;
37891;SDS011;45797;47.466;9.486;2022-10-17T16:01:53;2.78;;;1.40;;
37891;SDS011;45797;47.466;9.486;2022-10-17T16:06:53;4.78;;;1.40;;
37891;SDS011;45797;47.466;9.486;2022-10-17T16:11:59;5.93;;;1.58;;
37891;SDS011;45797;47.466;9.486;2022-10-17T16:22:25;3.72;;;1.30;;
37891;SDS011;45797;47.466;9.486;2022-10-17T16:27:36;3.50;;;1.38;;
37891;SDS011;45797;47.466;9.486;2022-10-17T16:32:38;2.78;;;1.20;;
37891;SDS011;45797;47.466;9.486;2022-10-17T16:37:44;5.07;;;1.80;;
37891;SDS011;45797;47.466;9.486;2022-10-17T16:42:43;2.83;;;1.38;;
37891;SDS011;45797;47.466;9.486;2022-10-17T16:47:45;4.60;;;1.42;;
37891;SDS011;45797;47.466;9.486;2022-10-17T16:58:21;2.38;;;1.10;;
37891;SDS011;45797;47.466;9.486;2022-10-17T17:03:23;2.83;;;1.13;;
37891;SDS011;45797;47.466;9.486;2022-10-17T17:08:34;2.85;;;0.90;;
37891;SDS011;45797;47.466;9.486;2022-10-17T17:13:39;2.63;;;1.15;;
37891;SDS011;45797;47.466;9.486;2022-10-17T17:18:53;2.30;;;1.27;;
37891;SDS011;45797;47.466;9.486;2022-10-17T17:29:07;5.38;;;1.30;;
37891;SDS011;45797;47.466;9.486;2022-10-17T17:34:09;7.03;;;1.20;;
37891;SDS011;45797;47.466;9.486;2022-10-17T17:39:18;2.83;;;1.15;;
37891;SDS011;45797;47.466;9.486;2022-10-17T17:44:18;2.83;;;1.42;;
37891;SDS011;45797;47.466;9.486;2022-10-17T17:49:18;3.05;;;1.40;;
37891;SDS011;45797;47.466;9.486;2022-10-17T17:54:18;2.70;;;1.25;;
37891;SDS011;45797;47.466;9.486;2022-10-17T18:04:45;4.47;;;1.13;;
37891;SDS011;45797;47.466;9.486;2022-10-17T18:15:12;2.60;;;1.27;;
37891;SDS011;45797;47.466;9.486;2022-10-17T18:20:13;3.28;;;1.30;;
37891;SDS011;45797;47.466;9.486;2022-10-17T18:25:13;4.32;;;1.52;;
37891;SDS011;45797;47.466;9.486;2022-10-17T18:30:13;2.75;;;1.20;;
37891;SDS011;45797;47.466;9.486;2022-10-17T18:35:30;3.75;;;1.42;;
37891;SDS011;45797;47.466;9.486;2022-10-17T18:46:06;4.63;;;1.55;;
37891;SDS011;45797;47.466;9.486;2022-10-17T18:51:08;3.20;;;1.40;;
37891;SDS011;45797;47.466;9.486;2022-10-17T18:56:16;2.85;;;1.30;;
37891;SDS011;45797;47.466;9.486;2022-10-17T19:01:20;3.85;;;1.48;;
37891;SDS011;45797;47.466;9.486;2022-10-17T19:06:24;3.55;;;1.50;;
37891;SDS011;45797;47.466;9.486;2022-10-17T19:16:43;3.85;;;1.27;;
37891;SDS011;45797;47.466;9.486;2022-10-17T19:22:00;2.78;;;1.42;;
37891;SDS011;45797;47.466;9.486;2022-10-17T19:27:01;2.90;;;1.60;;
37891;SDS011;45797;47.466;9.486;2022-10-17T19:32:04;2.50;;;1.30;;
37891;SDS011;45797;47.466;9.486;2022-10-17T19:37:07;2.97;;;1.50;;
37891;SDS011;45797;47.466;9.486;2022-10-17T19:42:07;2.97;;;1.23;;
37891;SDS011;45797;47.466;9.486;2022-10-17T19:47:09;2.42;;;1.17;;
37891;SDS011;45797;47.466;9.486;2022-10-17T19:52:15;3.88;;;1.33;;
37891;SDS011;45797;47.466;9.486;2022-10-17T19:57:31;2.72;;;1.50;;
37891;SDS011;45797;47.466;9.486;2022-10-17T20:02:40;2.88;;;1.27;;
37891;SDS011;45797;47.466;9.486;2022-10-17T20:12:53;5.60;;;1.83;;
37891;SDS011;45797;47.466;9.486;2022-10-17T20:18:08;2.53;;;1.40;;
37891;SDS011;45797;47.466;9.486;2022-10-17T20:28:29;2.88;;;1.20;;
37891;SDS011;45797;47.466;9.486;2022-10-17T20:33:30;4.82;;;1.40;;
37891;SDS011;45797;47.466;9.486;2022-10-17T20:38:32;4.50;;;1.40;;
37891;SDS011;45797;47.466;9.486;2022-10-17T20:43:34;4.20;;;1.40;;
37891;SDS011;45797;47.466;9.486;2022-10-17T20:48:45;2.88;;;1.23;;
37891;SDS011;45797;47.466;9.486;2022-10-17T20:53:49;3.63;;;1.60;;
37891;SDS011;45797;47.466;9.486;2022-10-17T20:59:00;3.38;;;1.45;;
37891;SDS011;45797;47.466;9.486;2022-10-17T21:04:12;4.72;;;1.85;;
37891;SDS011;45797;47.466;9.486;2022-10-17T21:09:13;3.67;;;1.55;;
37891;SDS011;45797;47.466;9.486;2022-10-17T21:14:20;2.42;;;1.10;;
37891;SDS011;45797;47.466;9.486;2022-10-17T21:19:22;2.50;;;1.40;;
37891;SDS011;45797;47.466;9.486;2022-10-17T21:24:31;2.15;;;1.02;;
37891;SDS011;45797;47.466;9.486;2022-10-17T21:29:38;2.28;;;1.17;;
37891;SDS011;45797;47.466;9.486;2022-10-17T21:34:39;2.28;;;1.10;;
37891;SDS011;45797;47.466;9.486;2022-10-17T21:39:39;5.30;;;1.38;;
37891;SDS011;45797;47.466;9.486;2022-10-17T21:44:42;3.53;;;1.67;;
37891;SDS011;45797;47.466;9.486;2022-10-17T21:49:51;2.83;;;1.40;;
37891;SDS011;45797;47.466;9.486;2022-10-17T21:55:00;5.28;;;1.45;;
37891;SDS011;45797;47.466;9.486;2022-10-17T22:00:06;3.38;;;1.42;;
37891;SDS011;45797;47.466;9.486;2022-10-17T22:05:21;3.58;;;1.40;;
37891;SDS011;45797;47.466;9.486;2022-10-17T22:10:31;3.95;;;1.70;;
37891;SDS011;45797;47.466;9.486;2022-10-17T22:15:36;3.20;;;1.27;;
37891;SDS011;45797;47.466;9.486;2022-10-17T22:20:35;3.05;;;1.50;;
37891;SDS011;45797;47.466;9.486;2022-10-17T22:25:37;4.30;;;1.60;;
37891;SDS011;45797;47.466;9.486;2022-10-17T22:30:37;6.55;;;1.60;;
37891;SDS011;45797;47.466;9.486;2022-10-17T22:35:38;5.20;;;1.77;;
37891;SDS011;45797;47.466;9.486;2022-10-17T22:40:39;5.70;;;1.77;;
37891;SDS011;45797;47.466;9.486;2022-10-17T22:45:41;6.00;;;1.98;;
37891;SDS011;45797;47.466;9.486;2022-10-17T22:56:01;4.88;;;2.08;;
37891;SDS011;45797;47.466;9.486;2022-10-17T23:01:03;3.67;;;1.92;;
37891;SDS011;45797;47.466;9.486;2022-10-17T23:06:04;5.60;;;1.85;;
37891;SDS011;45797;47.466;9.486;2022-10-17T23:11:15;3.10;;;1.50;;
37891;SDS011;45797;47.466;9.486;2022-10-17T23:16:16;5.70;;;1.70;;
37891;SDS011;45797;47.466;9.486;2022-10-17T23:31:41;7.68;;;1.67;;
37891;SDS011;45797;47.466;9.486;2022-10-17T23:36:56;5.18;;;1.83;;
37891;SDS011;45797;47.466;9.486;2022-10-17T23:46:59;7.05;;;2.30;;
37891;SDS011;45797;47.466;9.486;2022-10-17T23:52:06;5.32;;;2.33;;
37891;SDS011;45797;47.466;9.486;2022-10-17T23:57:17;5.35;;;2.17;;
